Time;durP1;ratioP1;P1;durP2;ratioP2;P2;SDS_P1;SDS_P2;PMS_P1;PMS_P2;Temp;Humidity;BMP_temperature;BMP_pressure;BME280_temperature;BME280_humidity;BME280_pressure;Samples;Min_cycle;Max_cycle;Signal;HPM_P1;HPM_P2
2022/04/30 00:02:26;;;;;;;;;13.75;11.75;;;;;;;;5044009;28;51069;-50
2022/04/30 00:05:10;;;;;;;;;14.25;10.25;;;;;;;;5037751;28;51078;-50
2022/04/30 00:07:55;;;;;;;;;12.50;11.25;;;;;;;;5041280;28;51455;-50
2022/04/30 00:10:53;;;;;;;;;12.25;12.25;;;;;;;;5038475;28;51686;-49
2022/04/30 00:13:39;;;;;;;;;17.25;15.50;;;;;;;;5039636;28;51095;-51
2022/04/30 00:16:24;;;;;;;;;16.25;13.25;;;;;;;;5044748;28;51094;-49
2022/04/30 00:19:08;;;;;;;;;13.25;9.25;;;;;;;;5038732;28;51433;-49
2022/04/30 00:21:54;;;;;;;;;15.50;12.50;;;;;;;;5042381;28;51883;-50
2022/04/30 00:24:41;;;;;;;;;17.00;12.75;;;;;;;;5042408;28;51109;-50
2022/04/30 00:27:25;;;;;;;;;16.00;11.75;;;;;;;;5042708;28;51053;-49
2022/04/30 00:30:11;;;;;;;;;17.75;13.00;;;;;;;;5050930;28;51049;-50
2022/04/30 00:32:56;;;;;;;;;15.75;12.00;;;;;;;;5045915;28;52036;-49
2022/04/30 00:35:41;;;;;;;;;14.75;11.50;;;;;;;;5045557;28;51473;-48
2022/04/30 00:38:26;;;;;;;;;20.00;14.50;;;;;;;;5045483;28;51043;-50
2022/04/30 00:41:15;;;;;;;;;22.00;16.50;;;;;;;;5046328;28;52266;-50
2022/04/30 00:44:10;;;;;;;;;17.50;15.50;;;;;;;;5044536;28;51396;-49
2022/04/30 00:46:55;;;;;;;;;15.50;14.50;;;;;;;;5046044;28;51160;-49
2022/04/30 00:49:40;;;;;;;;;16.50;12.75;;;;;;;;5041315;28;51399;-48
2022/04/30 00:52:26;;;;;;;;;13.00;11.25;;;;;;;;5045386;28;51067;-51
2022/04/30 00:55:11;;;;;;;;;17.50;12.00;;;;;;;;5049746;28;51033;-51
2022/04/30 00:58:01;;;;;;;;;17.75;14.50;;;;;;;;5037410;28;51122;-48
2022/04/30 01:00:59;;;;;;;;;15.00;12.75;;;;;;;;5040939;28;51561;-49
2022/04/30 01:03:43;;;;;;;;;17.75;14.25;;;;;;;;5037532;28;51414;-51
2022/04/30 01:06:55;;;;;;;;;16.50;13.00;;;;;;;;5049751;28;51141;-49
2022/04/30 01:09:45;;;;;;;;;17.00;14.50;;;;;;;;5039401;28;51098;-51
2022/04/30 01:12:34;;;;;;;;;21.50;14.50;;;;;;;;5040833;28;51113;-50
2022/04/30 01:15:22;;;;;;;;;10.75;10.25;;;;;;;;5045777;28;51300;-52
2022/04/30 01:18:13;;;;;;;;;15.75;12.75;;;;;;;;5041655;28;51061;-52
2022/04/30 01:21:03;;;;;;;;;19.00;13.00;;;;;;;;5049816;28;51140;-50
2022/04/30 01:23:49;;;;;;;;;13.75;12.50;;;;;;;;5039386;28;51395;-48
2022/04/30 01:26:40;;;;;;;;;13.00;9.25;;;;;;;;5042628;28;51492;-51
2022/04/30 01:29:25;;;;;;;;;11.50;11.50;;;;;;;;5047001;28;51135;-49
2022/04/30 01:38:22;;;;;;;;;17.25;14.00;;;;;;;;5045120;28;51362;-49
2022/04/30 01:41:08;;;;;;;;;17.25;14.50;;;;;;;;5042962;28;51147;-48
2022/04/30 01:44:09;;;;;;;;;17.25;15.75;;;;;;;;5040521;28;51124;-53
2022/04/30 01:46:56;;;;;;;;;13.25;12.50;;;;;;;;5046740;28;51073;-49
2022/04/30 01:49:41;;;;;;;;;14.25;12.25;;;;;;;;5040725;28;51576;-51
2022/04/30 01:52:26;;;;;;;;;13.75;11.25;;;;;;;;5041226;28;51851;-50
2022/04/30 01:55:11;;;;;;;;;19.50;15.25;;;;;;;;5040872;28;51091;-47
2022/04/30 01:57:56;;;;;;;;;16.25;16.25;;;;;;;;5039532;28;51113;-51
2022/04/30 02:00:41;;;;;;;;;14.25;12.00;;;;;;;;5048537;28;51133;-51
2022/04/30 02:03:27;;;;;;;;;16.00;12.75;;;;;;;;5044881;28;51058;-50
2022/04/30 02:06:20;;;;;;;;;19.50;15.75;;;;;;;;5042154;28;51358;-48
2022/04/30 02:09:07;;;;;;;;;21.00;15.75;;;;;;;;5036821;28;51403;-51
2022/04/30 02:11:51;;;;;;;;;17.50;16.00;;;;;;;;5039805;28;51194;-48
2022/04/30 02:14:36;;;;;;;;;17.00;14.50;;;;;;;;5040072;28;51534;-51
2022/04/30 02:17:41;;;;;;;;;19.50;15.75;;;;;;;;5041927;28;51189;-47
2022/04/30 02:20:33;;;;;;;;;18.50;16.50;;;;;;;;5038809;28;51358;-49
2022/04/30 02:23:22;;;;;;;;;16.00;15.00;;;;;;;;5033298;28;51536;-49
2022/04/30 02:26:09;;;;;;;;;13.25;6.00;;;;;;;;5038208;28;51062;-48
2022/04/30 02:28:58;;;;;;;;;15.50;15.00;;;;;;;;5038275;28;51081;-49
2022/04/30 02:31:42;;;;;;;;;14.75;12.25;;;;;;;;5041706;28;51456;-48
2022/04/30 02:34:28;;;;;;;;;17.75;11.25;;;;;;;;5044506;28;51183;-50
2022/04/30 02:37:14;;;;;;;;;18.00;14.75;;;;;;;;5037323;28;51015;-51
2022/04/30 02:39:59;;;;;;;;;13.50;11.00;;;;;;;;5040582;28;51053;-48
2022/04/30 02:42:45;;;;;;;;;15.75;13.00;;;;;;;;5041088;28;51162;-48
2022/04/30 02:45:30;;;;;;;;;16.75;15.75;;;;;;;;5036276;28;51132;-48
2022/04/30 02:48:21;;;;;;;;;13.50;11.50;;;;;;;;5043280;28;51366;-49
2022/04/30 02:51:07;;;;;;;;;15.75;13.75;;;;;;;;5037986;28;51065;-49
2022/04/30 02:53:54;;;;;;;;;23.50;15.00;;;;;;;;5041033;28;51192;-49
2022/04/30 02:56:44;;;;;;;;;20.75;17.50;;;;;;;;5035751;28;51437;-47
2022/04/30 03:02:35;;;;;;;;;16.50;14.25;;;;;;;;5046207;28;51202;-48
2022/04/30 03:05:20;;;;;;;;;17.75;13.50;;;;;;;;5037151;28;51077;-51
2022/04/30 03:08:12;;;;;;;;;16.75;13.25;;;;;;;;5042820;28;51016;-50
2022/04/30 03:11:07;;;;;;;;;16.75;15.00;;;;;;;;5039661;28;51341;-52
2022/04/30 03:14:00;;;;;;;;;18.50;16.25;;;;;;;;5036614;28;51097;-49
2022/04/30 03:22:58;;;;;;;;;13.25;12.25;;;;;;;;5048130;28;51108;-48
2022/04/30 03:26:05;;;;;;;;;16.50;14.75;;;;;;;;5037664;28;51185;-49
2022/04/30 03:28:53;;;;;;;;;17.00;14.75;;;;;;;;5038016;28;51121;-49
2022/04/30 03:31:49;;;;;;;;;15.75;14.00;;;;;;;;5036170;28;51191;-49
2022/04/30 03:34:41;;;;;;;;;17.75;16.50;;;;;;;;5041709;28;51117;-51
2022/04/30 03:37:30;;;;;;;;;20.75;18.00;;;;;;;;5038973;28;51034;-51
2022/04/30 03:40:14;;;;;;;;;18.75;15.75;;;;;;;;5041603;28;51525;-51
2022/04/30 03:43:04;;;;;;;;;15.50;13.25;;;;;;;;5041064;28;51137;-49
2022/04/30 03:45:58;;;;;;;;;15.25;10.75;;;;;;;;5040096;28;51179;-49
2022/04/30 03:48:43;;;;;;;;;13.00;12.75;;;;;;;;5039232;28;50972;-48
2022/04/30 03:51:29;;;;;;;;;17.50;14.75;;;;;;;;5035499;28;51106;-50
2022/04/30 03:54:13;;;;;;;;;18.00;15.25;;;;;;;;5039259;28;51303;-48
2022/04/30 03:57:00;;;;;;;;;13.25;13.00;;;;;;;;5052203;28;51631;-49
2022/04/30 03:59:46;;;;;;;;;17.00;15.50;;;;;;;;5042085;28;51549;-48
2022/04/30 04:02:33;;;;;;;;;17.00;14.75;;;;;;;;5044134;28;51129;-47
2022/04/30 04:05:19;;;;;;;;;16.25;14.50;;;;;;;;5046874;28;51228;-49
2022/04/30 04:08:10;;;;;;;;;16.50;15.25;;;;;;;;5046246;28;51537;-51
2022/04/30 04:11:02;;;;;;;;;18.00;13.75;;;;;;;;5046161;28;50995;-50
2022/04/30 04:17:38;;;;;;;;;17.50;14.25;;;;;;;;5036301;28;51637;-49
2022/04/30 04:20:25;;;;;;;;;17.00;14.25;;;;;;;;5041443;28;51110;-47
2022/04/30 04:23:21;;;;;;;;;16.75;13.00;;;;;;;;5043788;28;52625;-48
2022/04/30 04:26:09;;;;;;;;;15.25;12.75;;;;;;;;5041438;28;51378;-50
2022/04/30 04:28:58;;;;;;;;;16.00;14.25;;;;;;;;5040833;28;51166;-49
2022/04/30 04:31:44;;;;;;;;;14.50;13.25;;;;;;;;5032086;28;51279;-50
2022/04/30 04:34:29;;;;;;;;;14.25;12.00;;;;;;;;5044961;28;51121;-48
2022/04/30 04:37:20;;;;;;;;;15.25;12.00;;;;;;;;5044932;28;51022;-50
2022/04/30 04:40:11;;;;;;;;;17.75;14.50;;;;;;;;5042205;28;51562;-51
2022/04/30 04:42:56;;;;;;;;;18.25;16.00;;;;;;;;5043841;28;51602;-51
2022/04/30 04:45:43;;;;;;;;;18.75;16.75;;;;;;;;5040308;28;51113;-47
2022/04/30 04:48:28;;;;;;;;;18.25;17.25;;;;;;;;5042320;28;51195;-50
2022/04/30 04:51:12;;;;;;;;;23.25;21.00;;;;;;;;5034658;28;51110;-49
2022/04/30 04:53:56;;;;;;;;;22.00;19.75;;;;;;;;5041470;28;51104;-51
2022/04/30 04:56:42;;;;;;;;;25.50;20.75;;;;;;;;5043587;28;51010;-51
2022/04/30 04:59:28;;;;;;;;;22.50;18.00;;;;;;;;5052575;28;51460;-49
2022/04/30 05:02:13;;;;;;;;;19.75;18.00;;;;;;;;5042668;28;52570;-48
2022/04/30 05:04:59;;;;;;;;;23.00;21.00;;;;;;;;5041226;28;51068;-50
2022/04/30 05:07:44;;;;;;;;;22.25;21.50;;;;;;;;5042569;28;51146;-51
2022/04/30 05:10:28;;;;;;;;;22.00;18.25;;;;;;;;5040506;28;51176;-52
2022/04/30 05:13:34;;;;;;;;;19.00;18.00;;;;;;;;5043179;28;51326;-49
2022/04/30 05:16:21;;;;;;;;;21.25;19.50;;;;;;;;5043092;28;51408;-51
2022/04/30 05:19:06;;;;;;;;;26.50;22.50;;;;;;;;5037473;28;51205;-52
2022/04/30 05:21:53;;;;;;;;;22.75;19.75;;;;;;;;5042398;28;51149;-49
2022/04/30 05:24:37;;;;;;;;;20.50;16.50;;;;;;;;5040310;28;51168;-49
2022/04/30 05:27:22;;;;;;;;;20.00;16.25;;;;;;;;5039224;28;51070;-51
2022/04/30 05:30:06;;;;;;;;;21.00;17.00;;;;;;;;5045366;28;51090;-49
2022/04/30 05:32:54;;;;;;;;;21.50;20.00;;;;;;;;5038908;28;51371;-50
2022/04/30 05:35:39;;;;;;;;;33.00;29.00;;;;;;;;5037779;28;51610;-50
2022/04/30 05:38:23;;;;;;;;;31.50;28.25;;;;;;;;5044909;28;52030;-49
2022/04/30 05:41:09;;;;;;;;;35.75;32.25;;;;;;;;5041565;28;51106;-47
2022/04/30 05:44:16;;;;;;;;;23.75;21.50;;;;;;;;5037544;28;51153;-49
2022/04/30 05:47:00;;;;;;;;;21.25;17.00;;;;;;;;5040426;28;51117;-51
2022/04/30 05:49:46;;;;;;;;;21.50;18.75;;;;;;;;5040597;28;51086;-48
2022/04/30 05:52:30;;;;;;;;;23.75;21.25;;;;;;;;5040657;28;51097;-48
2022/04/30 05:55:15;;;;;;;;;35.00;30.00;;;;;;;;5045594;28;51503;-48
2022/04/30 05:58:02;;;;;;;;;28.25;23.00;;;;;;;;5043000;28;51005;-47
2022/04/30 06:00:58;;;;;;;;;23.50;21.50;;;;;;;;5049732;28;51273;-47
2022/04/30 06:03:45;;;;;;;;;27.75;22.25;;;;;;;;5040397;28;51052;-50
2022/04/30 06:06:31;;;;;;;;;28.75;24.25;;;;;;;;5039698;28;51202;-49
2022/04/30 06:09:16;;;;;;;;;29.00;25.25;;;;;;;;5036779;28;51193;-50
2022/04/30 06:12:02;;;;;;;;;30.75;25.25;;;;;;;;5034967;28;51013;-50
2022/04/30 06:14:47;;;;;;;;;33.00;28.75;;;;;;;;5041431;28;51091;-48
2022/04/30 06:17:31;;;;;;;;;26.50;22.75;;;;;;;;5038689;28;51136;-48
2022/04/30 06:20:16;;;;;;;;;30.75;29.25;;;;;;;;5039639;28;51972;-49
2022/04/30 06:23:01;;;;;;;;;23.75;20.50;;;;;;;;5042072;28;51172;-49
2022/04/30 06:26:11;;;;;;;;;28.25;26.00;;;;;;;;5039335;28;51175;-47
2022/04/30 06:28:57;;;;;;;;;30.00;24.00;;;;;;;;5042232;28;51179;-50
2022/04/30 06:31:41;;;;;;;;;25.25;23.75;;;;;;;;5043948;28;52359;-48
2022/04/30 06:34:27;;;;;;;;;23.25;20.50;;;;;;;;5039818;28;51142;-52
2022/04/30 06:37:11;;;;;;;;;24.75;20.25;;;;;;;;5044332;28;51144;-49
2022/04/30 06:39:56;;;;;;;;;26.50;21.25;;;;;;;;5039989;28;51355;-51
2022/04/30 06:42:46;;;;;;;;;28.00;21.75;;;;;;;;5037034;28;51347;-48
2022/04/30 06:45:32;;;;;;;;;21.25;15.25;;;;;;;;5047418;28;51277;-49
2022/04/30 06:48:17;;;;;;;;;27.00;19.50;;;;;;;;5042513;28;51127;-49
2022/04/30 06:51:03;;;;;;;;;20.00;19.25;;;;;;;;5040753;28;51209;-49
2022/04/30 06:57:09;;;;;;;;;23.00;20.75;;;;;;;;5042579;28;51113;-48
2022/04/30 06:59:55;;;;;;;;;26.75;23.00;;;;;;;;5048100;28;51231;-48
2022/04/30 07:02:39;;;;;;;;;20.25;18.50;;;;;;;;5038725;28;51393;-50
2022/04/30 07:05:24;;;;;;;;;22.50;20.75;;;;;;;;5038473;28;51047;-58
2022/04/30 07:08:08;;;;;;;;;22.00;21.00;;;;;;;;5036185;28;51195;-58
2022/04/30 07:10:52;;;;;;;;;26.25;25.25;;;;;;;;5038308;28;52798;-57
2022/04/30 07:13:37;;;;;;;;;24.50;23.50;;;;;;;;5039532;28;50936;-59
2022/04/30 07:16:21;;;;;;;;;20.00;18.75;;;;;;;;5039660;28;51446;-56
2022/04/30 07:19:06;;;;;;;;;21.25;19.25;;;;;;;;5037260;28;51115;-56
2022/04/30 07:21:50;;;;;;;;;18.00;18.00;;;;;;;;5039805;28;51188;-54
2022/04/30 07:24:35;;;;;;;;;21.00;18.00;;;;;;;;5039483;28;51146;-56
2022/04/30 07:27:21;;;;;;;;;17.25;14.50;;;;;;;;5039517;28;50987;-57
2022/04/30 07:30:06;;;;;;;;;19.50;16.25;;;;;;;;5038063;28;51141;-59
2022/04/30 07:32:50;;;;;;;;;18.50;18.00;;;;;;;;5036413;28;51176;-56
2022/04/30 07:35:34;;;;;;;;;17.00;16.00;;;;;;;;5037253;28;51289;-56
2022/04/30 07:38:19;;;;;;;;;20.00;19.00;;;;;;;;5038315;28;51212;-55
2022/04/30 07:41:03;;;;;;;;;19.75;17.75;;;;;;;;5039154;28;51648;-58
2022/04/30 07:43:47;;;;;;;;;27.00;23.75;;;;;;;;5039362;28;51219;-54
2022/04/30 07:46:32;;;;;;;;;23.50;18.75;;;;;;;;5039517;28;51395;-57
2022/04/30 07:49:16;;;;;;;;;25.25;23.50;;;;;;;;5038325;28;51126;-57
2022/04/30 07:52:01;;;;;;;;;18.75;17.75;;;;;;;;5038442;28;51182;-58
2022/04/30 07:54:45;;;;;;;;;24.50;20.25;;;;;;;;5037516;28;51109;-55
2022/04/30 07:57:29;;;;;;;;;22.50;21.00;;;;;;;;5038138;28;51220;-55
2022/04/30 08:00:14;;;;;;;;;29.75;23.25;;;;;;;;5037820;28;51098;-55
2022/04/30 08:02:59;;;;;;;;;24.25;21.75;;;;;;;;5038090;28;51161;-56
2022/04/30 08:05:43;;;;;;;;;31.00;28.00;;;;;;;;5039068;28;51199;-55
2022/04/30 08:08:28;;;;;;;;;32.25;28.25;;;;;;;;5039029;28;51056;-57
2022/04/30 08:11:13;;;;;;;;;29.75;27.75;;;;;;;;5039175;28;51544;-56
2022/04/30 08:13:58;;;;;;;;;32.00;26.75;;;;;;;;5039127;28;51113;-54
2022/04/30 08:16:42;;;;;;;;;32.00;28.50;;;;;;;;5038753;28;51084;-57
2022/04/30 08:19:26;;;;;;;;;30.75;25.50;;;;;;;;5038830;28;51569;-57
2022/04/30 08:22:11;;;;;;;;;36.00;30.00;;;;;;;;5039307;28;51171;-59
2022/04/30 08:24:55;;;;;;;;;27.75;27.00;;;;;;;;5033318;28;50982;-57
2022/04/30 08:27:41;;;;;;;;;26.50;26.25;;;;;;;;5037787;28;51279;-56
2022/04/30 08:30:25;;;;;;;;;39.00;31.25;;;;;;;;5038511;28;51224;-56
2022/04/30 08:33:09;;;;;;;;;29.50;26.75;;;;;;;;5039032;28;51090;-56
2022/04/30 08:35:54;;;;;;;;;26.75;21.25;;;;;;;;5038935;28;51284;-56
2022/04/30 08:38:38;;;;;;;;;33.50;25.00;;;;;;;;5038391;28;51121;-57
2022/04/30 08:41:22;;;;;;;;;29.50;26.50;;;;;;;;5040767;28;51106;-56
2022/04/30 08:44:08;;;;;;;;;27.50;27.25;;;;;;;;5042384;28;51382;-57
2022/04/30 08:46:53;;;;;;;;;23.75;22.00;;;;;;;;5042384;28;51167;-54
2022/04/30 08:49:39;;;;;;;;;32.50;28.25;;;;;;;;5042143;28;51470;-55
2022/04/30 08:52:24;;;;;;;;;25.50;21.75;;;;;;;;5042125;28;51173;-55
2022/04/30 08:55:09;;;;;;;;;10.75;10.00;;;;;;;;5042284;28;51163;-52
2022/04/30 08:57:53;;;;;;;;;7.75;7.25;;;;;;;;5042492;28;51189;-55
2022/04/30 09:00:38;;;;;;;;;6.00;5.00;;;;;;;;5041954;28;51406;-53
2022/04/30 09:03:23;;;;;;;;;6.00;4.50;;;;;;;;5041874;28;51058;-55
2022/04/30 09:06:07;;;;;;;;;8.00;5.50;;;;;;;;5042410;28;51043;-55
2022/04/30 09:08:52;;;;;;;;;9.00;7.50;;;;;;;;5041706;28;51057;-57
2022/04/30 09:11:39;;;;;;;;;4.00;4.00;;;;;;;;5041880;28;52080;-57
2022/04/30 09:14:24;;;;;;;;;9.50;4.25;;;;;;;;5041798;28;51137;-54
2022/04/30 09:17:10;;;;;;;;;11.25;9.75;;;;;;;;5042100;28;51324;-55
2022/04/30 09:20:04;;;;;;;;;9.75;6.50;;;;;;;;5041539;28;51240;-57
2022/04/30 09:22:48;;;;;;;;;10.00;6.00;;;;;;;;5041364;28;51074;-56
2022/04/30 09:25:33;;;;;;;;;10.25;8.75;;;;;;;;5038491;28;51190;-57
2022/04/30 09:28:28;;;;;;;;;8.50;8.50;;;;;;;;5041698;28;51174;-55
2022/04/30 09:31:14;;;;;;;;;12.25;9.50;;;;;;;;5041971;28;51547;-54
2022/04/30 09:37:40;;;;;;;;;10.00;7.75;;;;;;;;5039939;28;51086;-59
2022/04/30 09:40:16;;;;;;;;;13.50;10.00;;;;;;;;5041494;28;51184;-52
2022/04/30 09:43:05;;;;;;;;;14.00;11.50;;;;;;;;5041610;28;51045;-53
2022/04/30 09:45:49;;;;;;;;;10.25;8.25;;;;;;;;5041195;28;51549;-53
2022/04/30 09:54:41;;;;;;;;;18.50;14.00;;;;;;;;5037700;28;52098;-55
2022/04/30 09:57:27;;;;;;;;;17.50;13.50;;;;;;;;5041106;28;51263;-53
2022/04/30 10:00:11;;;;;;;;;16.50;13.75;;;;;;;;5040733;28;51022;-55
2022/04/30 10:02:58;;;;;;;;;21.75;14.75;;;;;;;;5040559;28;51138;-56
2022/04/30 10:05:43;;;;;;;;;16.50;13.75;;;;;;;;5039789;28;51506;-53
2022/04/30 10:08:27;;;;;;;;;17.00;15.00;;;;;;;;5040837;28;51138;-52
2022/04/30 10:11:16;;;;;;;;;17.25;16.00;;;;;;;;5040454;28;51061;-53
2022/04/30 10:14:18;;;;;;;;;12.25;9.75;;;;;;;;5040569;28;51097;-57
2022/04/30 10:20:12;;;;;;;;;17.75;14.75;;;;;;;;5034842;28;51594;-55
2022/04/30 10:22:58;;;;;;;;;15.75;12.50;;;;;;;;5039390;28;51007;-54
2022/04/30 10:25:43;;;;;;;;;14.25;11.25;;;;;;;;5039451;28;51464;-58
2022/04/30 10:28:27;;;;;;;;;15.00;12.50;;;;;;;;5039681;28;51425;-55
2022/04/30 10:31:12;;;;;;;;;15.75;14.50;;;;;;;;5040223;28;51110;-56
2022/04/30 10:33:56;;;;;;;;;27.25;18.75;;;;;;;;5039527;28;51102;-53
2022/04/30 10:36:40;;;;;;;;;20.25;19.25;;;;;;;;5039381;28;51560;-55
2022/04/30 10:39:25;;;;;;;;;17.50;15.00;;;;;;;;5039162;28;51173;-53
2022/04/30 10:42:09;;;;;;;;;12.75;11.25;;;;;;;;5039360;28;51066;-56
2022/04/30 10:44:55;;;;;;;;;9.00;6.00;;;;;;;;5039524;28;51099;-56
2022/04/30 10:47:59;;;;;;;;;18.25;14.00;;;;;;;;5039815;28;51006;-56
2022/04/30 10:50:45;;;;;;;;;15.00;12.25;;;;;;;;5038727;28;51083;-55
2022/04/30 10:53:30;;;;;;;;;16.75;14.00;;;;;;;;5038236;28;51019;-57
2022/04/30 10:56:15;;;;;;;;;17.50;16.50;;;;;;;;5039071;28;51182;-56
2022/04/30 10:58:59;;;;;;;;;19.00;17.00;;;;;;;;5039647;28;51133;-58
2022/04/30 11:01:51;;;;;;;;;10.50;10.50;;;;;;;;5035887;28;56810;-59
2022/04/30 11:04:35;;;;;;;;;21.75;16.50;;;;;;;;5037536;28;51241;-58
2022/04/30 11:07:20;;;;;;;;;13.25;12.75;;;;;;;;5039377;28;51113;-56
2022/04/30 11:22:01;;;;;;;;;22.00;17.75;;;;;;;;4434491;32;51075;-88
2022/04/30 11:24:45;;;;;;;;;20.25;19.50;;;;;;;;5135922;27;50390;-89
2022/04/30 11:27:30;;;;;;;;;26.75;20.50;;;;;;;;5133658;27;51095;-88
2022/04/30 11:30:15;;;;;;;;;21.00;18.25;;;;;;;;5129827;27;52456;-88
2022/04/30 11:32:59;;;;;;;;;22.00;19.00;;;;;;;;5135212;27;50569;-87
2022/04/30 11:35:52;;;;;;;;;22.50;20.25;;;;;;;;5140894;27;51040;-88
2022/04/30 11:38:37;;;;;;;;;27.75;24.75;;;;;;;;5135546;27;50416;-89
2022/04/30 11:41:21;;;;;;;;;26.25;22.25;;;;;;;;5134514;27;51100;-88
2022/04/30 11:44:08;;;;;;;;;28.00;25.25;;;;;;;;5138143;27;50965;-88
2022/04/30 11:46:53;;;;;;;;;17.75;17.25;;;;;;;;5126156;27;50485;-88
2022/04/30 11:49:38;;;;;;;;;29.75;23.25;;;;;;;;5128805;27;50584;-88
2022/04/30 11:52:23;;;;;;;;;28.75;24.75;;;;;;;;5137981;27;51288;-88
2022/04/30 11:55:08;;;;;;;;;25.50;23.00;;;;;;;;5133400;27;51148;-88
2022/04/30 11:57:53;;;;;;;;;28.00;26.50;;;;;;;;5131141;27;50830;-88
2022/04/30 12:00:38;;;;;;;;;25.00;25.00;;;;;;;;5138847;27;50454;-89
2022/04/30 12:03:27;;;;;;;;;21.00;21.00;;;;;;;;5139268;27;51435;-88
2022/04/30 12:06:11;;;;;;;;;27.50;23.00;;;;;;;;5118540;27;51400;-89
2022/04/30 12:08:56;;;;;;;;;29.00;24.50;;;;;;;;5135020;27;51373;-88
2022/04/30 12:11:42;;;;;;;;;24.75;23.00;;;;;;;;5125685;27;50858;-88
2022/04/30 12:14:27;;;;;;;;;25.75;21.25;;;;;;;;5129602;27;51037;-88
2022/04/30 12:17:35;;;;;;;;;29.25;22.00;;;;;;;;5127285;27;51138;-89
2022/04/30 12:26:29;;;;;;;;;23.50;20.00;;;;;;;;5112580;27;51162;-93
2022/04/30 12:29:20;;;;;;;;;24.50;22.50;;;;;;;;5110982;27;50502;-93
2022/04/30 12:32:07;;;;;;;;;20.00;17.00;;;;;;;;5109448;27;51230;-94
2022/04/30 12:34:53;;;;;;;;;25.00;21.75;;;;;;;;5112750;27;50783;-93
2022/04/30 12:37:40;;;;;;;;;23.50;17.75;;;;;;;;5120143;27;50458;-93
2022/04/30 12:40:27;;;;;;;;;18.75;18.50;;;;;;;;5112095;27;50446;-93
2022/04/30 12:43:11;;;;;;;;;16.50;14.50;;;;;;;;5113257;27;50843;-88
2022/04/30 12:45:56;;;;;;;;;22.00;17.50;;;;;;;;5106197;27;51302;-87
2022/04/30 12:48:41;;;;;;;;;18.50;16.25;;;;;;;;5111758;27;50509;-88
2022/04/30 12:51:25;;;;;;;;;17.75;17.75;;;;;;;;5105535;27;50897;-89
2022/04/30 12:54:12;;;;;;;;;21.75;18.50;;;;;;;;5105587;27;50491;-88
2022/04/30 12:56:56;;;;;;;;;17.75;17.50;;;;;;;;5109662;27;51202;-88
2022/04/30 12:59:42;;;;;;;;;21.25;19.25;;;;;;;;5107330;27;50898;-88
2022/04/30 13:02:30;;;;;;;;;20.50;19.00;;;;;;;;5110077;27;50813;-93
2022/04/30 13:05:19;;;;;;;;;20.00;18.25;;;;;;;;5112902;27;50533;-95
2022/04/30 13:08:04;;;;;;;;;19.25;16.00;;;;;;;;5120805;27;50505;-86
2022/04/30 13:13:54;;;;;;;;;17.25;17.00;;;;;;;;5095678;27;51187;-86
2022/04/30 13:16:40;;;;;;;;;17.75;14.75;;;;;;;;5110244;27;51153;-92
2022/04/30 13:19:28;;;;;;;;;18.75;15.75;;;;;;;;5120749;27;51483;-92
2022/04/30 13:22:26;;;;;;;;;13.50;12.00;;;;;;;;5119766;27;50702;-88
2022/04/30 13:25:11;;;;;;;;;15.25;10.50;;;;;;;;5121035;27;51414;-90
2022/04/30 13:27:57;;;;;;;;;12.50;11.25;;;;;;;;5119354;27;51176;-90
2022/04/30 13:30:43;;;;;;;;;15.00;12.25;;;;;;;;5108995;27;51161;-88
2022/04/30 13:33:29;;;;;;;;;8.75;7.75;;;;;;;;5115097;27;51381;-91
2022/04/30 13:36:15;;;;;;;;;11.25;10.00;;;;;;;;5096735;27;51446;-90
2022/04/30 13:39:03;;;;;;;;;15.50;12.00;;;;;;;;5103540;27;51024;-89
2022/04/30 13:41:47;;;;;;;;;14.25;11.75;;;;;;;;5090782;27;51068;-88
2022/04/30 13:44:31;;;;;;;;;10.00;9.25;;;;;;;;5097496;27;51220;-86
2022/04/30 13:47:15;;;;;;;;;12.25;10.75;;;;;;;;5104613;27;51419;-89
2022/04/30 13:50:00;;;;;;;;;12.00;11.25;;;;;;;;5109183;27;51085;-85
2022/04/30 13:52:45;;;;;;;;;15.25;12.00;;;;;;;;5107668;27;51254;-88
2022/04/30 13:55:31;;;;;;;;;8.25;7.50;;;;;;;;5102805;27;50994;-88
2022/04/30 13:58:15;;;;;;;;;10.00;10.00;;;;;;;;5088664;27;52799;-88
2022/04/30 14:01:00;;;;;;;;;17.50;15.00;;;;;;;;5088788;27;51131;-86
2022/04/30 14:03:46;;;;;;;;;14.00;7.25;;;;;;;;5095285;27;51257;-89
2022/04/30 14:06:30;;;;;;;;;12.75;11.75;;;;;;;;5107660;27;50443;-92
2022/04/30 14:09:15;;;;;;;;;14.50;11.00;;;;;;;;5125968;27;51180;-93
2022/04/30 14:11:59;;;;;;;;;8.75;7.50;;;;;;;;5123258;27;50683;-94
2022/04/30 14:14:57;;;;;;;;;9.25;9.25;;;;;;;;5110350;27;50655;-94
2022/04/30 14:20:45;;;;;;;;;8.50;7.75;;;;;;;;5129687;27;50846;-94
2022/04/30 14:23:31;;;;;;;;;13.00;9.25;;;;;;;;5115304;27;50634;-93
2022/04/30 14:26:18;;;;;;;;;7.25;7.25;;;;;;;;5130778;27;50438;-93
2022/04/30 14:29:02;;;;;;;;;10.75;9.25;;;;;;;;5118065;27;50948;-91
2022/04/30 14:31:51;;;;;;;;;7.75;7.75;;;;;;;;5130057;27;51126;-94
2022/04/30 14:34:38;;;;;;;;;15.00;9.25;;;;;;;;5106311;27;50885;-93
2022/04/30 14:37:25;;;;;;;;;13.75;10.75;;;;;;;;5120158;27;51119;-92
2022/04/30 14:40:09;;;;;;;;;9.00;8.75;;;;;;;;5114148;27;51186;-93
2022/04/30 14:42:54;;;;;;;;;12.25;8.75;;;;;;;;5117981;27;50494;-94
2022/04/30 14:45:39;;;;;;;;;15.25;11.75;;;;;;;;5117458;27;50909;-94
2022/04/30 14:48:26;;;;;;;;;13.50;8.25;;;;;;;;5125475;27;50607;-91
2022/04/30 14:51:12;;;;;;;;;7.50;7.50;;;;;;;;5124180;27;51186;-91
2022/04/30 14:53:57;;;;;;;;;10.50;8.00;;;;;;;;5119178;27;51160;-93
2022/04/30 14:56:42;;;;;;;;;9.50;9.00;;;;;;;;5123081;27;51015;-94
2022/04/30 14:59:28;;;;;;;;;9.25;6.25;;;;;;;;5121200;27;51045;-91
2022/04/30 15:02:12;;;;;;;;;12.25;9.50;;;;;;;;5105097;27;51318;-92
2022/04/30 15:04:58;;;;;;;;;9.50;9.25;;;;;;;;5106749;27;51222;-92
2022/04/30 15:07:43;;;;;;;;;10.50;7.50;;;;;;;;5111890;27;51135;-91
2022/04/30 15:10:28;;;;;;;;;12.75;8.50;;;;;;;;5112495;27;50979;-91
2022/04/30 15:13:13;;;;;;;;;8.50;7.00;;;;;;;;5123384;27;51829;-94
2022/04/30 15:15:57;;;;;;;;;11.75;8.00;;;;;;;;5123079;27;50485;-91
2022/04/30 15:18:42;;;;;;;;;9.75;8.50;;;;;;;;5122856;27;51248;-93
2022/04/30 15:21:27;;;;;;;;;5.50;5.25;;;;;;;;5124842;27;50562;-94
2022/04/30 15:24:22;;;;;;;;;5.75;4.00;;;;;;;;5110598;27;50423;-92
2022/04/30 15:28:13;;;;;;;;;4.75;3.00;;;;;;;;5129717;27;50646;-91
2022/04/30 15:31:04;;;;;;;;;11.75;8.75;;;;;;;;5124657;27;50666;-95
2022/04/30 15:34:40;;;;;;;;;;;;;;;;;;;;;
2022/04/30 15:37:49;;;;;;;;;5.75;4.50;;;;;;;;5102521;27;50769;-95
2022/04/30 15:40:35;;;;;;;;;7.00;5.75;;;;;;;;5102915;27;50599;-91
2022/04/30 15:44:13;;;;;;;;;;;;;;;;;;;;;
2022/04/30 15:52:55;;;;;;;;;4.75;2.50;;;;;;;;5056222;28;51432;-56
2022/04/30 15:55:39;;;;;;;;;2.75;2.00;;;;;;;;5041262;28;51444;-55
2022/04/30 15:58:24;;;;;;;;;5.50;3.00;;;;;;;;5062338;27;51334;-58
2022/04/30 16:01:09;;;;;;;;;3.00;2.25;;;;;;;;5074561;27;51157;-53
2022/04/30 16:03:53;;;;;;;;;1.50;0.00;;;;;;;;5078585;27;50996;-54
2022/04/30 16:06:37;;;;;;;;;7.75;5.50;;;;;;;;5082562;27;51022;-55
2022/04/30 16:09:22;;;;;;;;;3.50;2.50;;;;;;;;5081996;27;51153;-57
2022/04/30 16:12:06;;;;;;;;;6.00;2.00;;;;;;;;5071212;27;51225;-54
2022/04/30 16:14:51;;;;;;;;;4.00;2.50;;;;;;;;5062250;28;51061;-56
2022/04/30 16:17:35;;;;;;;;;2.00;1.75;;;;;;;;5068555;27;51011;-55
2022/04/30 16:20:20;;;;;;;;;3.00;1.75;;;;;;;;5078651;27;51097;-58
2022/04/30 16:23:04;;;;;;;;;3.25;3.00;;;;;;;;5081329;27;51136;-54
2022/04/30 16:25:51;;;;;;;;;2.75;2.00;;;;;;;;5072401;27;51161;-53
2022/04/30 16:28:35;;;;;;;;;7.25;3.00;;;;;;;;5074711;27;51156;-56
2022/04/30 16:31:19;;;;;;;;;0.75;0.00;;;;;;;;5078245;27;51167;-57
2022/04/30 16:34:04;;;;;;;;;1.25;1.25;;;;;;;;5060257;28;51120;-57
2022/04/30 16:36:48;;;;;;;;;3.50;1.25;;;;;;;;5061869;28;51438;-54
2022/04/30 16:39:32;;;;;;;;;1.25;0.50;;;;;;;;5061382;28;51027;-55
2022/04/30 16:42:17;;;;;;;;;3.25;1.25;;;;;;;;5061655;28;51200;-54
2022/04/30 16:45:01;;;;;;;;;4.25;2.00;;;;;;;;5061087;28;51132;-56
2022/04/30 16:47:45;;;;;;;;;3.50;1.50;;;;;;;;5074720;27;50992;-59
2022/04/30 16:50:30;;;;;;;;;5.25;3.75;;;;;;;;5081363;27;51163;-57
2022/04/30 16:53:14;;;;;;;;;2.00;2.00;;;;;;;;5072656;27;51540;-58
2022/04/30 16:59:03;;;;;;;;;2.00;1.50;;;;;;;;5076272;27;51011;-54
2022/04/30 17:01:47;;;;;;;;;2.75;1.25;;;;;;;;5081513;27;51563;-55
2022/04/30 17:04:31;;;;;;;;;2.75;1.00;;;;;;;;5073311;27;51154;-56
2022/04/30 17:07:17;;;;;;;;;4.50;1.50;;;;;;;;5071202;27;51079;-55
2022/04/30 17:10:01;;;;;;;;;1.75;1.75;;;;;;;;5079743;27;51165;-56
2022/04/30 17:12:46;;;;;;;;;4.50;2.25;;;;;;;;5080812;27;51426;-54
2022/04/30 17:15:30;;;;;;;;;2.75;1.00;;;;;;;;5078976;27;51295;-55
2022/04/30 17:18:15;;;;;;;;;3.75;2.00;;;;;;;;5065093;27;51465;-53
2022/04/30 17:21:02;;;;;;;;;1.00;1.00;;;;;;;;5066769;27;52144;-56
2022/04/30 17:23:46;;;;;;;;;2.25;1.50;;;;;;;;5067026;27;51397;-58
2022/04/30 17:26:31;;;;;;;;;1.25;0.00;;;;;;;;5067247;27;51166;-55
2022/04/30 17:29:15;;;;;;;;;20.75;17.25;;;;;;;;5064901;27;51217;-56